sensor_id;sensor_type;location;lat;lon;timestamp;temperature;humidity
47805;DHT22;33568;45.286;9.900;2022-11-13T00:00:25;12.80;99.90
47805;DHT22;33568;45.286;9.900;2022-11-13T00:03:10;12.80;99.90
47805;DHT22;33568;45.286;9.900;2022-11-13T00:06:00;12.70;99.90
47805;DHT22;33568;45.286;9.900;2022-11-13T00:08:46;12.70;99.90
47805;DHT22;33568;45.286;9.900;2022-11-13T00:11:31;12.70;99.90
47805;DHT22;33568;45.286;9.900;2022-11-13T00:14:16;12.70;99.90
47805;DHT22;33568;45.286;9.900;2022-11-13T00:17:01;12.70;99.90
47805;DHT22;33568;45.286;9.900;2022-11-13T00:19:45;12.70;99.90
47805;DHT22;33568;45.286;9.900;2022-11-13T00:22:30;12.60;99.90
47805;DHT22;33568;45.286;9.900;2022-11-13T00:25:15;12.60;99.90
47805;DHT22;33568;45.286;9.900;2022-11-13T00:28:00;12.60;99.90
47805;DHT22;33568;45.286;9.900;2022-11-13T00:30:45;12.50;99.90
47805;DHT22;33568;45.286;9.900;2022-11-13T00:33:30;12.50;99.90
47805;DHT22;33568;45.286;9.900;2022-11-13T00:36:21;12.50;99.90
47805;DHT22;33568;45.286;9.900;2022-11-13T00:39:08;12.40;99.90
47805;DHT22;33568;45.286;9.900;2022-11-13T00:41:53;12.50;99.90
47805;DHT22;33568;45.286;9.900;2022-11-13T00:44:37;12.40;99.90
47805;DHT22;33568;45.286;9.900;2022-11-13T00:47:22;12.40;99.90
47805;DHT22;33568;45.286;9.900;2022-11-13T00:50:07;12.40;99.90
47805;DHT22;33568;45.286;9.900;2022-11-13T00:52:52;12.40;99.90
47805;DHT22;33568;45.286;9.900;2022-11-13T00:55:37;12.30;99.90
47805;DHT22;33568;45.286;9.900;2022-11-13T00:58:22;12.30;99.90
47805;DHT22;33568;45.286;9.900;2022-11-13T01:01:13;12.30;99.90
47805;DHT22;33568;45.286;9.900;2022-11-13T01:03:58;12.30;99.90
47805;DHT22;33568;45.286;9.900;2022-11-13T01:06:43;12.30;99.90
47805;DHT22;33568;45.286;9.900;2022-11-13T01:09:29;12.30;99.90
47805;DHT22;33568;45.286;9.900;2022-11-13T01:12:14;12.30;99.90
47805;DHT22;33568;45.286;9.900;2022-11-13T01:14:59;12.30;99.90
47805;DHT22;33568;45.286;9.900;2022-11-13T01:17:45;12.30;99.90
47805;DHT22;33568;45.286;9.900;2022-11-13T01:20:30;12.30;99.90
47805;DHT22;33568;45.286;9.900;2022-11-13T01:23:16;12.30;99.90
47805;DHT22;33568;45.286;9.900;2022-11-13T01:26:10;12.30;99.90
47805;DHT22;33568;45.286;9.900;2022-11-13T01:28:57;12.30;99.90
47805;DHT22;33568;45.286;9.900;2022-11-13T01:31:42;12.40;99.90
47805;DHT22;33568;45.286;9.900;2022-11-13T01:34:27;12.40;99.90
47805;DHT22;33568;45.286;9.900;2022-11-13T01:37:12;12.40;99.90
47805;DHT22;33568;45.286;9.900;2022-11-13T01:39:57;12.40;99.90
47805;DHT22;33568;45.286;9.900;2022-11-13T01:42:42;12.30;99.90
47805;DHT22;33568;45.286;9.900;2022-11-13T01:51:59;12.30;99.90
47805;DHT22;33568;45.286;9.900;2022-11-13T01:54:51;12.30;99.90
47805;DHT22;33568;45.286;9.900;2022-11-13T01:57:37;12.30;99.90
47805;DHT22;33568;45.286;9.900;2022-11-13T02:00:22;12.30;99.90
47805;DHT22;33568;45.286;9.900;2022-11-13T02:03:07;12.30;99.90
47805;DHT22;33568;45.286;9.900;2022-11-13T02:05:53;12.30;99.90
47805;DHT22;33568;45.286;9.900;2022-11-13T02:08:38;12.20;99.90
47805;DHT22;33568;45.286;9.900;2022-11-13T02:11:24;12.10;99.90
47805;DHT22;33568;45.286;9.900;2022-11-13T02:14:11;12.10;99.90
47805;DHT22;33568;45.286;9.900;2022-11-13T02:16:59;12.10;99.90
47805;DHT22;33568;45.286;9.900;2022-11-13T02:19:49;12.00;99.90
47805;DHT22;33568;45.286;9.900;2022-11-13T02:25:27;11.90;99.90
47805;DHT22;33568;45.286;9.900;2022-11-13T02:28:13;11.80;99.90
47805;DHT22;33568;45.286;9.900;2022-11-13T02:31:08;11.70;99.90
47805;DHT22;33568;45.286;9.900;2022-11-13T02:33:53;11.70;99.90
47805;DHT22;33568;45.286;9.900;2022-11-13T02:36:38;11.70;99.90
47805;DHT22;33568;45.286;9.900;2022-11-13T02:39:23;11.70;99.90
47805;DHT22;33568;45.286;9.900;2022-11-13T02:42:08;11.60;99.90
47805;DHT22;33568;45.286;9.900;2022-11-13T02:44:53;11.60;99.90
47805;DHT22;33568;45.286;9.900;2022-11-13T02:47:38;11.50;99.90
47805;DHT22;33568;45.286;9.900;2022-11-13T02:50:23;11.50;99.90
47805;DHT22;33568;45.286;9.900;2022-11-13T02:53:07;11.40;99.90
47805;DHT22;33568;45.286;9.900;2022-11-13T02:55:53;11.40;99.90
47805;DHT22;33568;45.286;9.900;2022-11-13T02:58:38;11.40;99.90
47805;DHT22;33568;45.286;9.900;2022-11-13T03:01:23;11.40;99.90
47805;DHT22;33568;45.286;9.900;2022-11-13T03:04:08;11.30;99.90
47805;DHT22;33568;45.286;9.900;2022-11-13T03:06:53;11.30;99.90
47805;DHT22;33568;45.286;9.900;2022-11-13T03:09:39;11.30;99.90
47805;DHT22;33568;45.286;9.900;2022-11-13T03:12:24;11.30;99.90
47805;DHT22;33568;45.286;9.900;2022-11-13T03:15:09;11.20;99.90
47805;DHT22;33568;45.286;9.900;2022-11-13T03:17:54;11.20;99.90
47805;DHT22;33568;45.286;9.900;2022-11-13T03:20:41;11.10;99.90
47805;DHT22;33568;45.286;9.900;2022-11-13T03:23:27;11.10;99.90
47805;DHT22;33568;45.286;9.900;2022-11-13T03:26:14;11.10;99.90
47805;DHT22;33568;45.286;9.900;2022-11-13T03:28:59;11.00;99.90
47805;DHT22;33568;45.286;9.900;2022-11-13T03:31:45;11.00;99.90
47805;DHT22;33568;45.286;9.900;2022-11-13T03:34:29;11.00;99.90
47805;DHT22;33568;45.286;9.900;2022-11-13T03:37:14;11.00;99.90
47805;DHT22;33568;45.286;9.900;2022-11-13T03:39:59;11.00;99.90
47805;DHT22;33568;45.286;9.900;2022-11-13T03:42:44;11.00;99.90
47805;DHT22;33568;45.286;9.900;2022-11-13T03:45:29;11.00;99.90
47805;DHT22;33568;45.286;9.900;2022-11-13T03:48:15;11.00;99.90
47805;DHT22;33568;45.286;9.900;2022-11-13T03:51:00;10.90;99.90
47805;DHT22;33568;45.286;9.900;2022-11-13T03:53:45;10.90;99.90
47805;DHT22;33568;45.286;9.900;2022-11-13T03:56:30;10.90;99.90
47805;DHT22;33568;45.286;9.900;2022-11-13T03:59:16;11.00;99.90
47805;DHT22;33568;45.286;9.900;2022-11-13T04:02:01;10.90;99.90
47805;DHT22;33568;45.286;9.900;2022-11-13T04:04:45;10.90;99.90
47805;DHT22;33568;45.286;9.900;2022-11-13T04:07:30;10.90;99.90
47805;DHT22;33568;45.286;9.900;2022-11-13T04:10:16;10.90;99.90
47805;DHT22;33568;45.286;9.900;2022-11-13T04:13:01;10.90;99.90
47805;DHT22;33568;45.286;9.900;2022-11-13T04:15:46;10.90;99.90
47805;DHT22;33568;45.286;9.900;2022-11-13T04:18:31;10.90;99.90
47805;DHT22;33568;45.286;9.900;2022-11-13T04:21:16;10.90;99.90
47805;DHT22;33568;45.286;9.900;2022-11-13T04:24:01;10.90;99.90
47805;DHT22;33568;45.286;9.900;2022-11-13T04:26:46;10.80;99.90
47805;DHT22;33568;45.286;9.900;2022-11-13T04:29:31;10.80;99.90
47805;DHT22;33568;45.286;9.900;2022-11-13T04:32:16;10.90;99.90
47805;DHT22;33568;45.286;9.900;2022-11-13T04:35:00;10.80;99.90
47805;DHT22;33568;45.286;9.900;2022-11-13T04:37:48;10.90;99.90
47805;DHT22;33568;45.286;9.900;2022-11-13T04:40:32;10.90;99.90
47805;DHT22;33568;45.286;9.900;2022-11-13T04:43:17;10.90;99.90
47805;DHT22;33568;45.286;9.900;2022-11-13T04:46:02;10.90;99.90
47805;DHT22;33568;45.286;9.900;2022-11-13T04:48:47;10.90;99.90
47805;DHT22;33568;45.286;9.900;2022-11-13T04:51:32;10.90;99.90
47805;DHT22;33568;45.286;9.900;2022-11-13T04:54:17;10.90;99.90
47805;DHT22;33568;45.286;9.900;2022-11-13T04:57:02;10.90;99.90
47805;DHT22;33568;45.286;9.900;2022-11-13T04:59:46;10.90;99.90
47805;DHT22;33568;45.286;9.900;2022-11-13T05:02:32;10.90;99.90
47805;DHT22;33568;45.286;9.900;2022-11-13T05:05:17;10.90;99.90
47805;DHT22;33568;45.286;9.900;2022-11-13T05:08:02;10.90;99.90
47805;DHT22;33568;45.286;9.900;2022-11-13T05:10:47;10.80;99.90
47805;DHT22;33568;45.286;9.900;2022-11-13T05:13:33;10.80;99.90
47805;DHT22;33568;45.286;9.900;2022-11-13T05:16:19;10.80;99.90
47805;DHT22;33568;45.286;9.900;2022-11-13T05:19:04;10.70;99.90
47805;DHT22;33568;45.286;9.900;2022-11-13T05:21:51;10.70;99.90
47805;DHT22;33568;45.286;9.900;2022-11-13T05:24:37;10.70;99.90
47805;DHT22;33568;45.286;9.900;2022-11-13T05:27:21;10.70;99.90
47805;DHT22;33568;45.286;9.900;2022-11-13T05:30:07;10.70;99.90
47805;DHT22;33568;45.286;9.900;2022-11-13T05:32:52;10.70;99.90
47805;DHT22;33568;45.286;9.900;2022-11-13T05:35:37;10.60;99.90
47805;DHT22;33568;45.286;9.900;2022-11-13T05:38:22;10.60;99.90
47805;DHT22;33568;45.286;9.900;2022-11-13T05:41:16;10.60;99.90
47805;DHT22;33568;45.286;9.900;2022-11-13T05:44:01;10.50;99.90
47805;DHT22;33568;45.286;9.900;2022-11-13T05:46:47;10.50;99.90
47805;DHT22;33568;45.286;9.900;2022-11-13T05:49:31;10.50;99.90
47805;DHT22;33568;45.286;9.900;2022-11-13T05:52:16;10.50;99.90
47805;DHT22;33568;45.286;9.900;2022-11-13T05:55:01;10.50;99.90
47805;DHT22;33568;45.286;9.900;2022-11-13T05:57:46;10.50;99.90
47805;DHT22;33568;45.286;9.900;2022-11-13T06:00:31;10.50;99.90
47805;DHT22;33568;45.286;9.900;2022-11-13T06:03:16;10.50;99.90
47805;DHT22;33568;45.286;9.900;2022-11-13T06:06:01;10.40;99.90
47805;DHT22;33568;45.286;9.900;2022-11-13T06:08:47;10.40;99.90
47805;DHT22;33568;45.286;9.900;2022-11-13T06:11:32;10.30;99.90
47805;DHT22;33568;45.286;9.900;2022-11-13T06:14:17;10.20;99.90
47805;DHT22;33568;45.286;9.900;2022-11-13T06:17:02;10.30;99.90
47805;DHT22;33568;45.286;9.900;2022-11-13T06:19:47;10.20;99.90
47805;DHT22;33568;45.286;9.900;2022-11-13T06:22:32;10.30;99.90
47805;DHT22;33568;45.286;9.900;2022-11-13T06:25:17;10.30;99.90
47805;DHT22;33568;45.286;9.900;2022-11-13T06:28:01;10.30;99.90
47805;DHT22;33568;45.286;9.900;2022-11-13T06:30:46;10.30;99.90
47805;DHT22;33568;45.286;9.900;2022-11-13T06:33:32;10.30;99.90
47805;DHT22;33568;45.286;9.900;2022-11-13T06:36:25;10.30;99.90
47805;DHT22;33568;45.286;9.900;2022-11-13T06:39:10;10.40;99.90
47805;DHT22;33568;45.286;9.900;2022-11-13T06:41:55;10.40;99.90
47805;DHT22;33568;45.286;9.900;2022-11-13T06:44:40;10.50;99.90
47805;DHT22;33568;45.286;9.900;2022-11-13T06:47:25;10.50;99.90
47805;DHT22;33568;45.286;9.900;2022-11-13T06:50:11;10.50;99.90
47805;DHT22;33568;45.286;9.900;2022-11-13T06:52:56;10.50;99.90
47805;DHT22;33568;45.286;9.900;2022-11-13T06:55:46;10.50;99.90
47805;DHT22;33568;45.286;9.900;2022-11-13T06:58:32;10.60;99.90
47805;DHT22;33568;45.286;9.900;2022-11-13T07:01:20;10.60;99.90
47805;DHT22;33568;45.286;9.900;2022-11-13T07:04:06;10.70;99.90
47805;DHT22;33568;45.286;9.900;2022-11-13T07:06:52;10.70;99.90
47805;DHT22;33568;45.286;9.900;2022-11-13T07:09:37;10.70;99.90
47805;DHT22;33568;45.286;9.900;2022-11-13T07:12:22;10.80;99.90
47805;DHT22;33568;45.286;9.900;2022-11-13T07:15:07;10.80;99.90
47805;DHT22;33568;45.286;9.900;2022-11-13T07:17:52;10.90;99.90
47805;DHT22;33568;45.286;9.900;2022-11-13T07:20:37;10.90;99.90
47805;DHT22;33568;45.286;9.900;2022-11-13T07:23:22;11.00;99.90
47805;DHT22;33568;45.286;9.900;2022-11-13T07:26:10;11.10;99.90
47805;DHT22;33568;45.286;9.900;2022-11-13T07:28:55;11.10;99.90
47805;DHT22;33568;45.286;9.900;2022-11-13T07:31:41;11.20;99.90
47805;DHT22;33568;45.286;9.900;2022-11-13T07:34:25;11.30;99.90
47805;DHT22;33568;45.286;9.900;2022-11-13T07:37:10;11.40;99.90
47805;DHT22;33568;45.286;9.900;2022-11-13T07:39:55;11.50;99.90
47805;DHT22;33568;45.286;9.900;2022-11-13T07:42:40;11.50;99.90
47805;DHT22;33568;45.286;9.900;2022-11-13T07:45:27;11.60;99.90
47805;DHT22;33568;45.286;9.900;2022-11-13T07:48:12;11.70;99.90
47805;DHT22;33568;45.286;9.900;2022-11-13T07:51:01;11.80;99.90
47805;DHT22;33568;45.286;9.900;2022-11-13T07:53:45;11.80;99.90
47805;DHT22;33568;45.286;9.900;2022-11-13T07:56:31;11.80;99.90
47805;DHT22;33568;45.286;9.900;2022-11-13T07:59:16;11.90;99.90
47805;DHT22;33568;45.286;9.900;2022-11-13T08:02:00;12.00;99.90
47805;DHT22;33568;45.286;9.900;2022-11-13T08:04:46;12.00;99.90
47805;DHT22;33568;45.286;9.900;2022-11-13T08:07:30;12.10;99.90
47805;DHT22;33568;45.286;9.900;2022-11-13T08:10:16;12.10;99.90
47805;DHT22;33568;45.286;9.900;2022-11-13T08:13:04;12.20;99.90
47805;DHT22;33568;45.286;9.900;2022-11-13T08:15:49;12.30;99.90
47805;DHT22;33568;45.286;9.900;2022-11-13T08:18:34;12.30;99.90
47805;DHT22;33568;45.286;9.900;2022-11-13T08:21:19;12.40;99.90
47805;DHT22;33568;45.286;9.900;2022-11-13T08:24:05;12.50;99.90
47805;DHT22;33568;45.286;9.900;2022-11-13T08:26:50;12.60;99.90
47805;DHT22;33568;45.286;9.900;2022-11-13T08:29:35;12.70;99.90
47805;DHT22;33568;45.286;9.900;2022-11-13T08:32:20;12.80;99.90
47805;DHT22;33568;45.286;9.900;2022-11-13T08:35:06;12.90;99.90
47805;DHT22;33568;45.286;9.900;2022-11-13T08:37:51;12.90;99.90
47805;DHT22;33568;45.286;9.900;2022-11-13T08:40:36;13.00;99.90
47805;DHT22;33568;45.286;9.900;2022-11-13T08:43:21;13.10;99.90
47805;DHT22;33568;45.286;9.900;2022-11-13T08:46:06;13.20;99.90
47805;DHT22;33568;45.286;9.900;2022-11-13T08:48:51;13.30;99.90
47805;DHT22;33568;45.286;9.900;2022-11-13T08:51:37;13.30;99.90
47805;DHT22;33568;45.286;9.900;2022-11-13T08:54:22;13.40;99.60
47805;DHT22;33568;45.286;9.900;2022-11-13T08:57:06;13.50;99.40
47805;DHT22;33568;45.286;9.900;2022-11-13T08:59:52;13.60;99.20
47805;DHT22;33568;45.286;9.900;2022-11-13T09:02:37;13.70;98.90
47805;DHT22;33568;45.286;9.900;2022-11-13T09:05:23;13.90;98.70
47805;DHT22;33568;45.286;9.900;2022-11-13T09:08:08;14.10;98.40
47805;DHT22;33568;45.286;9.900;2022-11-13T09:10:54;14.20;98.20
47805;DHT22;33568;45.286;9.900;2022-11-13T09:13:38;14.30;97.80
47805;DHT22;33568;45.286;9.900;2022-11-13T09:16:23;14.30;97.70
47805;DHT22;33568;45.286;9.900;2022-11-13T09:19:08;14.50;97.50
47805;DHT22;33568;45.286;9.900;2022-11-13T09:21:53;14.60;97.30
47805;DHT22;33568;45.286;9.900;2022-11-13T09:24:38;15.60;97.10
47805;DHT22;33568;45.286;9.900;2022-11-13T09:27:23;18.40;94.50
47805;DHT22;33568;45.286;9.900;2022-11-13T09:30:08;21.40;90.20
47805;DHT22;33568;45.286;9.900;2022-11-13T09:32:54;23.50;82.40
47805;DHT22;33568;45.286;9.900;2022-11-13T09:35:41;25.00;75.90
47805;DHT22;33568;45.286;9.900;2022-11-13T09:38:27;26.60;71.00
47805;DHT22;33568;45.286;9.900;2022-11-13T09:41:22;28.10;66.30
47805;DHT22;33568;45.286;9.900;2022-11-13T09:44:16;29.10;60.90
47805;DHT22;33568;45.286;9.900;2022-11-13T09:47:22;29.90;57.60
47805;DHT22;33568;45.286;9.900;2022-11-13T09:50:18;30.60;52.60
47805;DHT22;33568;45.286;9.900;2022-11-13T09:53:03;30.80;53.30
47805;DHT22;33568;45.286;9.900;2022-11-13T09:59:39;32.10;48.70
47805;DHT22;33568;45.286;9.900;2022-11-13T10:11:48;33.70;43.90
47805;DHT22;33568;45.286;9.900;2022-11-13T10:14:39;34.20;46.70
47805;DHT22;33568;45.286;9.900;2022-11-13T10:17:44;34.60;45.70
47805;DHT22;33568;45.286;9.900;2022-11-13T10:20:37;35.00;43.10
47805;DHT22;33568;45.286;9.900;2022-11-13T10:23:37;34.60;42.90
47805;DHT22;33568;45.286;9.900;2022-11-13T10:26:25;34.20;42.40
47805;DHT22;33568;45.286;9.900;2022-11-13T10:29:16;34.20;44.80
47805;DHT22;33568;45.286;9.900;2022-11-13T10:32:14;34.50;43.50
47805;DHT22;33568;45.286;9.900;2022-11-13T10:41:19;33.60;41.80
47805;DHT22;33568;45.286;9.900;2022-11-13T10:44:50;32.70;44.30
47805;DHT22;33568;45.286;9.900;2022-11-13T10:49:55;32.50;44.60
47805;DHT22;33568;45.286;9.900;2022-11-13T10:52:45;32.80;43.90
47805;DHT22;33568;45.286;9.900;2022-11-13T10:58:22;34.00;42.90
47805;DHT22;33568;45.286;9.900;2022-11-13T11:01:18;34.70;42.20
47805;DHT22;33568;45.286;9.900;2022-11-13T11:04:06;34.60;40.80
47805;DHT22;33568;45.286;9.900;2022-11-13T11:07:02;35.00;41.30
47805;DHT22;33568;45.286;9.900;2022-11-13T11:09:48;35.40;40.80
47805;DHT22;33568;45.286;9.900;2022-11-13T11:12:34;36.00;40.20
47805;DHT22;33568;45.286;9.900;2022-11-13T11:15:49;36.40;39.80
47805;DHT22;33568;45.286;9.900;2022-11-13T11:18:43;36.00;37.90
47805;DHT22;33568;45.286;9.900;2022-11-13T11:21:33;35.30;39.60
47805;DHT22;33568;45.286;9.900;2022-11-13T11:24:34;35.10;39.20
47805;DHT22;33568;45.286;9.900;2022-11-13T11:27:45;34.70;38.00
47805;DHT22;33568;45.286;9.900;2022-11-13T11:30:38;35.00;37.90
47805;DHT22;33568;45.286;9.900;2022-11-13T11:33:38;35.20;38.90
47805;DHT22;33568;45.286;9.900;2022-11-13T11:36:37;34.70;37.30
47805;DHT22;33568;45.286;9.900;2022-11-13T11:39:34;32.90;38.10
47805;DHT22;33568;45.286;9.900;2022-11-13T11:42:30;30.20;40.40
47805;DHT22;33568;45.286;9.900;2022-11-13T11:45:26;27.80;42.80
47805;DHT22;33568;45.286;9.900;2022-11-13T11:48:16;25.70;44.90
47805;DHT22;33568;45.286;9.900;2022-11-13T11:57:18;21.80;51.40
47805;DHT22;33568;45.286;9.900;2022-11-13T12:00:11;21.20;52.70
47805;DHT22;33568;45.286;9.900;2022-11-13T12:09:24;25.30;48.00
47805;DHT22;33568;45.286;9.900;2022-11-13T12:15:09;23.60;49.90
47805;DHT22;33568;45.286;9.900;2022-11-13T12:18:08;22.60;51.60
47805;DHT22;33568;45.286;9.900;2022-11-13T12:35:59;19.90;57.80
47805;DHT22;33568;45.286;9.900;2022-11-13T12:38:54;19.70;58.30
47805;DHT22;33568;45.286;9.900;2022-11-13T12:41:47;19.50;58.80
47805;DHT22;33568;45.286;9.900;2022-11-13T12:44:59;19.30;59.40
47805;DHT22;33568;45.286;9.900;2022-11-13T12:47:47;19.20;60.40
47805;DHT22;33568;45.286;9.900;2022-11-13T12:50:34;19.10;61.30
47805;DHT22;33568;45.286;9.900;2022-11-13T12:53:25;18.90;61.50
47805;DHT22;33568;45.286;9.900;2022-11-13T12:59:33;18.70;62.30
47805;DHT22;33568;45.286;9.900;2022-11-13T13:02:50;18.60;63.30
47805;DHT22;33568;45.286;9.900;2022-11-13T13:15:37;18.30;65.10
47805;DHT22;33568;45.286;9.900;2022-11-13T13:18:44;18.40;65.20
47805;DHT22;33568;45.286;9.900;2022-11-13T13:21:42;18.30;65.40
47805;DHT22;33568;45.286;9.900;2022-11-13T13:27:25;18.40;65.90
47805;DHT22;33568;45.286;9.900;2022-11-13T13:30:19;18.50;65.60
47805;DHT22;33568;45.286;9.900;2022-11-13T13:36:50;18.60;65.70
47805;DHT22;33568;45.286;9.900;2022-11-13T13:45:18;18.40;66.10
47805;DHT22;33568;45.286;9.900;2022-11-13T13:48:10;18.30;66.70
47805;DHT22;33568;45.286;9.900;2022-11-13T13:50:57;18.10;67.20
47805;DHT22;33568;45.286;9.900;2022-11-13T13:53:43;18.10;67.60
47805;DHT22;33568;45.286;9.900;2022-11-13T13:56:28;18.00;68.20
47805;DHT22;33568;45.286;9.900;2022-11-13T13:59:34;18.00;68.90
47805;DHT22;33568;45.286;9.900;2022-11-13T14:02:21;18.00;69.40
47805;DHT22;33568;45.286;9.900;2022-11-13T14:05:35;18.00;69.90
47805;DHT22;33568;45.286;9.900;2022-11-13T14:08:25;18.00;70.70
47805;DHT22;33568;45.286;9.900;2022-11-13T14:14:28;18.10;70.90
47805;DHT22;33568;45.286;9.900;2022-11-13T14:17:22;18.00;70.60
47805;DHT22;33568;45.286;9.900;2022-11-13T14:20:11;17.90;71.30
47805;DHT22;33568;45.286;9.900;2022-11-13T14:22:56;17.90;71.70
47805;DHT22;33568;45.286;9.900;2022-11-13T14:25:42;17.90;72.00
47805;DHT22;33568;45.286;9.900;2022-11-13T14:28:28;17.80;72.20
47805;DHT22;33568;45.286;9.900;2022-11-13T14:31:14;17.80;72.50
47805;DHT22;33568;45.286;9.900;2022-11-13T14:34:06;17.70;73.00
47805;DHT22;33568;45.286;9.900;2022-11-13T14:36:53;17.60;73.50
47805;DHT22;33568;45.286;9.900;2022-11-13T14:39:38;17.50;73.90
47805;DHT22;33568;45.286;9.900;2022-11-13T14:42:31;17.50;74.30
47805;DHT22;33568;45.286;9.900;2022-11-13T14:45:23;17.40;74.90
47805;DHT22;33568;45.286;9.900;2022-11-13T14:48:24;17.40;75.50
47805;DHT22;33568;45.286;9.900;2022-11-13T14:51:42;17.40;76.80
47805;DHT22;33568;45.286;9.900;2022-11-13T14:54:37;17.30;78.50
47805;DHT22;33568;45.286;9.900;2022-11-13T14:57:22;17.30;78.20
47805;DHT22;33568;45.286;9.900;2022-11-13T15:00:18;17.30;78.70
47805;DHT22;33568;45.286;9.900;2022-11-13T15:03:09;17.20;79.20
47805;DHT22;33568;45.286;9.900;2022-11-13T15:05:54;17.20;79.80
47805;DHT22;33568;45.286;9.900;2022-11-13T15:08:40;17.10;80.20
47805;DHT22;33568;45.286;9.900;2022-11-13T15:11:26;17.10;80.60
47805;DHT22;33568;45.286;9.900;2022-11-13T15:14:13;17.10;81.20
47805;DHT22;33568;45.286;9.900;2022-11-13T15:16:59;17.00;81.90
47805;DHT22;33568;45.286;9.900;2022-11-13T15:19:45;17.00;82.80
47805;DHT22;33568;45.286;9.900;2022-11-13T15:22:32;16.90;83.40
47805;DHT22;33568;45.286;9.900;2022-11-13T15:25:19;16.80;83.70
47805;DHT22;33568;45.286;9.900;2022-11-13T15:28:04;16.70;83.80
47805;DHT22;33568;45.286;9.900;2022-11-13T15:30:50;16.70;84.30
47805;DHT22;33568;45.286;9.900;2022-11-13T15:33:35;16.70;84.80
47805;DHT22;33568;45.286;9.900;2022-11-13T15:36:20;16.60;85.50
47805;DHT22;33568;45.286;9.900;2022-11-13T15:39:06;16.50;86.30
47805;DHT22;33568;45.286;9.900;2022-11-13T15:41:52;16.50;86.60
47805;DHT22;33568;45.286;9.900;2022-11-13T15:44:37;16.40;87.00
47805;DHT22;33568;45.286;9.900;2022-11-13T15:47:33;16.30;87.40
47805;DHT22;33568;45.286;9.900;2022-11-13T15:50:19;16.20;87.80
47805;DHT22;33568;45.286;9.900;2022-11-13T15:53:05;16.20;88.30
47805;DHT22;33568;45.286;9.900;2022-11-13T15:55:52;16.10;88.60
47805;DHT22;33568;45.286;9.900;2022-11-13T15:58:37;16.00;88.90
47805;DHT22;33568;45.286;9.900;2022-11-13T16:01:22;16.00;89.20
47805;DHT22;33568;45.286;9.900;2022-11-13T16:04:08;16.00;89.70
47805;DHT22;33568;45.286;9.900;2022-11-13T16:06:54;15.90;90.00
47805;DHT22;33568;45.286;9.900;2022-11-13T16:09:40;15.80;90.10
47805;DHT22;33568;45.286;9.900;2022-11-13T16:12:25;15.70;90.30
47805;DHT22;33568;45.286;9.900;2022-11-13T16:15:14;15.60;90.50
47805;DHT22;33568;45.286;9.900;2022-11-13T16:18:00;15.60;90.70
47805;DHT22;33568;45.286;9.900;2022-11-13T16:20:46;15.50;90.80
47805;DHT22;33568;45.286;9.900;2022-11-13T16:23:30;15.50;91.00
47805;DHT22;33568;45.286;9.900;2022-11-13T16:26:18;15.40;91.10
47805;DHT22;33568;45.286;9.900;2022-11-13T16:29:17;15.30;91.20
47805;DHT22;33568;45.286;9.900;2022-11-13T16:32:03;15.30;91.40
47805;DHT22;33568;45.286;9.900;2022-11-13T16:34:48;15.20;91.40
47805;DHT22;33568;45.286;9.900;2022-11-13T16:37:33;15.20;91.50
47805;DHT22;33568;45.286;9.900;2022-11-13T16:40:24;15.10;91.60
47805;DHT22;33568;45.286;9.900;2022-11-13T16:43:10;15.10;91.70
47805;DHT22;33568;45.286;9.900;2022-11-13T16:45:58;15.00;91.80
47805;DHT22;33568;45.286;9.900;2022-11-13T16:48:48;15.00;91.90
47805;DHT22;33568;45.286;9.900;2022-11-13T16:51:33;14.90;91.90
47805;DHT22;33568;45.286;9.900;2022-11-13T16:54:18;14.80;92.00
47805;DHT22;33568;45.286;9.900;2022-11-13T16:57:03;14.70;92.10
47805;DHT22;33568;45.286;9.900;2022-11-13T16:59:48;14.70;92.20
47805;DHT22;33568;45.286;9.900;2022-11-13T17:02:33;14.70;92.30
47805;DHT22;33568;45.286;9.900;2022-11-13T17:05:20;14.70;92.40
47805;DHT22;33568;45.286;9.900;2022-11-13T17:08:07;14.70;92.40
47805;DHT22;33568;45.286;9.900;2022-11-13T17:10:56;14.60;92.50
47805;DHT22;33568;45.286;9.900;2022-11-13T17:13:42;14.60;92.60
47805;DHT22;33568;45.286;9.900;2022-11-13T17:16:28;14.50;92.60
47805;DHT22;33568;45.286;9.900;2022-11-13T17:19:13;14.50;92.70
47805;DHT22;33568;45.286;9.900;2022-11-13T17:21:58;14.50;92.70
47805;DHT22;33568;45.286;9.900;2022-11-13T17:24:43;14.50;92.70
47805;DHT22;33568;45.286;9.900;2022-11-13T17:27:28;14.40;92.80
47805;DHT22;33568;45.286;9.900;2022-11-13T17:30:13;14.40;92.80
47805;DHT22;33568;45.286;9.900;2022-11-13T17:32:58;14.30;92.70
47805;DHT22;33568;45.286;9.900;2022-11-13T17:35:43;14.30;92.80
47805;DHT22;33568;45.286;9.900;2022-11-13T17:38:30;14.30;92.90
47805;DHT22;33568;45.286;9.900;2022-11-13T17:41:15;14.30;93.00
47805;DHT22;33568;45.286;9.900;2022-11-13T17:44:01;14.30;93.10
47805;DHT22;33568;45.286;9.900;2022-11-13T17:46:46;14.20;93.10
47805;DHT22;33568;45.286;9.900;2022-11-13T17:49:31;14.20;93.20
47805;DHT22;33568;45.286;9.900;2022-11-13T17:52:16;14.20;93.30
47805;DHT22;33568;45.286;9.900;2022-11-13T17:55:02;14.20;93.40
47805;DHT22;33568;45.286;9.900;2022-11-13T17:57:49;14.30;93.60
47805;DHT22;33568;45.286;9.900;2022-11-13T18:00:34;14.30;93.60
47805;DHT22;33568;45.286;9.900;2022-11-13T18:03:19;14.30;93.60
47805;DHT22;33568;45.286;9.900;2022-11-13T18:06:06;14.30;93.50
47805;DHT22;33568;45.286;9.900;2022-11-13T18:08:51;14.30;93.50
47805;DHT22;33568;45.286;9.900;2022-11-13T18:11:36;14.30;93.50
47805;DHT22;33568;45.286;9.900;2022-11-13T18:14:21;14.30;93.50
47805;DHT22;33568;45.286;9.900;2022-11-13T18:17:06;14.30;93.40
47805;DHT22;33568;45.286;9.900;2022-11-13T18:19:51;14.30;93.30
47805;DHT22;33568;45.286;9.900;2022-11-13T18:22:36;14.30;93.30
47805;DHT22;33568;45.286;9.900;2022-11-13T18:25:21;14.30;93.30
47805;DHT22;33568;45.286;9.900;2022-11-13T18:28:06;14.30;93.40
47805;DHT22;33568;45.286;9.900;2022-11-13T18:30:50;14.30;93.40
47805;DHT22;33568;45.286;9.900;2022-11-13T18:33:36;14.30;93.50
47805;DHT22;33568;45.286;9.900;2022-11-13T18:36:21;14.30;93.60
47805;DHT22;33568;45.286;9.900;2022-11-13T18:39:06;14.30;93.60
47805;DHT22;33568;45.286;9.900;2022-11-13T18:41:51;14.30;93.70
47805;DHT22;33568;45.286;9.900;2022-11-13T18:44:36;14.30;93.80
47805;DHT22;33568;45.286;9.900;2022-11-13T18:47:21;14.30;93.80
47805;DHT22;33568;45.286;9.900;2022-11-13T18:50:06;14.30;93.90
47805;DHT22;33568;45.286;9.900;2022-11-13T18:52:54;14.30;93.90
47805;DHT22;33568;45.286;9.900;2022-11-13T18:55:39;14.20;93.90
47805;DHT22;33568;45.286;9.900;2022-11-13T18:58:23;14.20;94.30
47805;DHT22;33568;45.286;9.900;2022-11-13T19:01:15;14.20;94.00
47805;DHT22;33568;45.286;9.900;2022-11-13T19:04:03;14.20;94.00
47805;DHT22;33568;45.286;9.900;2022-11-13T19:06:49;14.20;94.10
47805;DHT22;33568;45.286;9.900;2022-11-13T19:09:34;14.20;94.20